Time;durP1;ratioP1;P1;durP2;ratioP2;P2;SDS_P1;SDS_P2;PMS_P1;PMS_P2;Temp;Humidity;BMP_temperature;BMP_pressure;BME280_temperature;BME280_humidity;BME280_pressure;Samples;Min_cycle;Max_cycle;Signal;HPM_P1;HPM_P2
2023/09/18 00:02:08;;;;;;;1.13;1.03;;;20.60;99.90;;;;;;5034002;28;20816;-80
2023/09/18 00:04:36;;;;;;;1.50;1.00;;;20.60;99.90;;;;;;5033964;28;20947;-80
2023/09/18 00:07:02;;;;;;;2.00;1.00;;;20.70;99.90;;;;;;5034132;28;20470;-80
2023/09/18 00:09:29;;;;;;;1.00;0.90;;;20.60;99.90;;;;;;5034150;28;20453;-80
2023/09/18 00:11:56;;;;;;;1.50;1.37;;;20.60;99.90;;;;;;5034156;28;20447;-80
2023/09/18 00:14:23;;;;;;;1.60;1.00;;;20.50;99.90;;;;;;5034047;28;20474;-80
2023/09/18 00:16:51;;;;;;;3.27;1.10;;;20.50;99.90;;;;;;5034032;28;20591;-80
2023/09/18 00:19:18;;;;;;;2.73;1.90;;;20.50;99.90;;;;;;5033696;28;20442;-80
2023/09/18 00:21:46;;;;;;;2.90;1.20;;;20.40;99.90;;;;;;5033689;28;20814;-80
2023/09/18 00:24:13;;;;;;;2.37;1.23;;;20.40;99.90;;;;;;5033923;28;20446;-80
2023/09/18 00:26:39;;;;;;;1.00;1.00;;;20.30;99.90;;;;;;5033511;28;20492;-80
2023/09/18 00:29:06;;;;;;;1.60;1.30;;;20.30;99.90;;;;;;5033852;28;20446;-80
2023/09/18 00:31:33;;;;;;;1.60;1.20;;;20.30;99.90;;;;;;5033716;28;20448;-80
2023/09/18 00:34:00;;;;;;;1.33;1.10;;;20.20;99.90;;;;;;5033769;28;20455;-80
2023/09/18 00:36:26;;;;;;;1.60;1.10;;;20.20;99.90;;;;;;5033231;28;20862;-80
2023/09/18 00:38:54;;;;;;;4.70;1.40;;;20.20;99.90;;;;;;5033711;28;20446;-80
2023/09/18 00:41:21;;;;;;;0.73;0.73;;;20.10;99.90;;;;;;5033657;28;20450;-80
2023/09/18 00:43:48;;;;;;;1.60;1.50;;;20.30;99.90;;;;;;5033602;28;20438;-80
2023/09/18 00:46:15;;;;;;;1.20;1.10;;;20.20;99.90;;;;;;5033295;28;20458;-80
2023/09/18 00:48:42;;;;;;;1.30;1.20;;;20.30;99.90;;;;;;5033538;28;20446;-80
2023/09/18 00:51:10;;;;;;;1.70;0.93;;;20.30;99.90;;;;;;5033511;28;20443;-80
2023/09/18 00:53:39;;;;;;;2.70;1.20;;;20.30;99.90;;;;;;5033230;28;20446;-80
2023/09/18 00:56:07;;;;;;;4.83;1.00;;;20.30;99.90;;;;;;5033290;28;20501;-80
2023/09/18 00:58:34;;;;;;;0.70;0.70;;;20.30;99.90;;;;;;5033459;28;20461;-80
2023/09/18 01:01:01;;;;;;;1.43;1.10;;;20.30;99.90;;;;;;5033355;28;20516;-81
2023/09/18 01:03:28;;;;;;;1.23;1.00;;;20.30;99.90;;;;;;5033353;28;20446;-81
2023/09/18 01:05:55;;;;;;;0.87;0.83;;;20.30;99.90;;;;;;5033272;28;20463;-80
2023/09/18 01:08:22;;;;;;;0.97;0.90;;;20.30;99.90;;;;;;5033024;28;20935;-80
2023/09/18 01:10:55;;;;;;;1.73;1.30;;;20.30;99.90;;;;;;5033248;28;20450;-80
2023/09/18 01:13:30;;;;;;;1.23;0.80;;;20.30;99.90;;;;;;5033284;28;20430;-80
2023/09/18 01:16:04;;;;;;;2.73;1.30;;;20.40;99.90;;;;;;5032815;28;20497;-80
2023/09/18 01:18:30;;;;;;;1.10;1.00;;;20.50;99.90;;;;;;5033333;28;20488;-80
2023/09/18 01:20:57;;;;;;;1.67;1.37;;;20.50;99.90;;;;;;5032866;28;20951;-80
2023/09/18 01:23:25;;;;;;;1.77;1.07;;;20.50;99.90;;;;;;5033155;28;20458;-80
2023/09/18 01:25:52;;;;;;;1.60;1.10;;;20.50;99.90;;;;;;5032874;28;20466;-80
2023/09/18 01:28:18;;;;;;;1.27;1.00;;;20.50;99.90;;;;;;5033144;28;20431;-80
2023/09/18 01:30:45;;;;;;;4.10;1.37;;;20.50;99.90;;;;;;5033527;28;20446;-80
2023/09/18 01:33:12;;;;;;;0.87;0.87;;;20.50;99.90;;;;;;5037179;28;20480;-80
2023/09/18 01:35:41;;;;;;;1.20;1.10;;;20.60;99.90;;;;;;5037014;28;20490;-80
2023/09/18 01:38:10;;;;;;;1.27;1.10;;;20.50;99.90;;;;;;5036775;28;20449;-81
2023/09/18 01:40:39;;;;;;;2.00;1.17;;;20.40;99.90;;;;;;5037007;28;20528;-81
2023/09/18 01:43:06;;;;;;;1.87;1.27;;;20.60;99.90;;;;;;5037156;28;20453;-81
2023/09/18 01:45:33;;;;;;;1.43;1.20;;;20.60;99.90;;;;;;5036858;28;20836;-81
2023/09/18 01:48:00;;;;;;;1.60;0.83;;;20.60;99.90;;;;;;5036574;28;20970;-82
2023/09/18 01:50:27;;;;;;;1.07;0.80;;;20.50;99.90;;;;;;5036806;28;20442;-84
2023/09/18 01:52:53;;;;;;;2.80;0.90;;;20.40;99.90;;;;;;5036492;28;20951;-84
2023/09/18 01:55:20;;;;;;;0.80;0.70;;;20.10;99.90;;;;;;5036570;28;20509;-85
2023/09/18 01:57:48;;;;;;;2.53;0.80;;;19.60;99.90;;;;;;5036435;28;20973;-84
2023/09/18 02:00:16;;;;;;;6.70;1.47;;;19.10;99.90;;;;;;5036609;28;20450;-84
2023/09/18 02:02:43;;;;;;;1.10;0.83;;;18.80;99.90;;;;;;5036714;28;20442;-84
2023/09/18 02:05:09;;;;;;;6.10;1.03;;;18.60;99.90;;;;;;5036489;28;20828;-84
2023/09/18 02:07:36;;;;;;;1.37;0.80;;;18.50;99.90;;;;;;5036569;28;20454;-84
2023/09/18 02:10:04;;;;;;;1.33;0.80;;;18.40;99.90;;;;;;5036563;28;20817;-83
2023/09/18 02:12:30;;;;;;;2.67;0.70;;;18.20;99.90;;;;;;5036484;28;20451;-85
2023/09/18 02:15:01;;;;;;;3.67;0.83;;;18.10;99.90;;;;;;5035974;28;20991;-84
2023/09/18 02:17:27;;;;;;;6.30;1.23;;;18.10;99.90;;;;;;5036097;28;20922;-84
2023/09/18 02:19:54;;;;;;;0.60;0.50;;;18.10;99.90;;;;;;5036339;28;20453;-84
2023/09/18 02:22:21;;;;;;;0.63;0.57;;;18.10;99.90;;;;;;5036421;28;20885;-85
2023/09/18 02:24:48;;;;;;;5.70;0.97;;;18.00;99.90;;;;;;5036133;28;20451;-85
2023/09/18 02:27:14;;;;;;;2.27;0.90;;;18.00;99.90;;;;;;5035910;28;20478;-85
2023/09/18 02:29:41;;;;;;;4.77;0.70;;;18.00;99.90;;;;;;5035909;28;20442;-85
2023/09/18 02:32:10;;;;;;;5.10;0.80;;;18.00;99.90;;;;;;5036163;28;20453;-85
2023/09/18 02:34:36;;;;;;;2.77;1.10;;;18.00;99.90;;;;;;5036086;28;20442;-84
2023/09/18 02:37:03;;;;;;;0.93;0.57;;;18.00;99.90;;;;;;5035997;28;20493;-84
2023/09/18 02:39:30;;;;;;;1.33;0.73;;;17.80;99.90;;;;;;5036000;28;20446;-84
2023/09/18 02:41:56;;;;;;;1.70;0.90;;;17.90;99.90;;;;;;5042402;28;20812;-84
2023/09/18 02:44:23;;;;;;;3.90;0.60;;;17.80;99.90;;;;;;5035875;28;20453;-84
2023/09/18 02:46:50;;;;;;;8.20;0.80;;;17.80;99.90;;;;;;5035733;28;20467;-84
2023/09/18 02:49:18;;;;;;;1.13;0.80;;;17.80;99.90;;;;;;5035814;28;20449;-83
2023/09/18 02:51:45;;;;;;;2.63;0.80;;;17.90;99.90;;;;;;5035726;28;20439;-83
2023/09/18 02:54:11;;;;;;;0.90;0.50;;;18.00;99.90;;;;;;5035661;28;20453;-83
2023/09/18 02:56:38;;;;;;;1.20;0.60;;;18.10;99.90;;;;;;5035995;28;20479;-83
2023/09/18 02:59:05;;;;;;;3.83;1.23;;;18.20;99.90;;;;;;5035316;28;20492;-83
2023/09/18 03:01:32;;;;;;;4.20;0.90;;;18.20;99.90;;;;;;5035518;28;20458;-83
2023/09/18 03:03:58;;;;;;;2.33;0.73;;;18.20;99.90;;;;;;5035223;28;20446;-83
2023/09/18 03:06:26;;;;;;;5.03;0.70;;;18.30;99.90;;;;;;5035353;28;20474;-83
2023/09/18 03:08:53;;;;;;;1.40;0.60;;;18.30;99.90;;;;;;5035059;28;20966;-82
2023/09/18 03:11:20;;;;;;;2.10;0.70;;;18.40;99.90;;;;;;5035345;28;20438;-83
2023/09/18 03:13:47;;;;;;;5.97;0.70;;;18.40;99.90;;;;;;5035277;28;20442;-82
2023/09/18 03:16:15;;;;;;;5.23;1.00;;;18.50;99.90;;;;;;5034955;28;20487;-82
2023/09/18 03:18:41;;;;;;;5.30;0.70;;;18.50;99.90;;;;;;5034891;28;20865;-82
2023/09/18 03:21:08;;;;;;;4.30;1.20;;;18.50;99.90;;;;;;5035206;28;20458;-82
2023/09/18 03:23:36;;;;;;;2.80;0.80;;;18.50;99.90;;;;;;5035101;28;20518;-83
2023/09/18 03:26:03;;;;;;;4.00;0.83;;;18.70;99.90;;;;;;5034639;28;20482;-82
2023/09/18 03:28:30;;;;;;;0.50;0.40;;;18.60;99.90;;;;;;5035013;28;20446;-82
2023/09/18 03:30:58;;;;;;;3.57;1.20;;;18.60;99.90;;;;;;5034896;28;20501;-82
2023/09/18 03:33:25;;;;;;;0.50;0.50;;;18.60;99.90;;;;;;5034918;28;20447;-82
2023/09/18 03:35:54;;;;;;;2.20;1.10;;;18.70;99.90;;;;;;5034725;28;20893;-82
2023/09/18 03:38:21;;;;;;;0.80;0.63;;;18.70;99.90;;;;;;5034529;28;20549;-82
2023/09/18 03:40:49;;;;;;;5.60;1.20;;;18.70;99.90;;;;;;5034555;28;20924;-83
2023/09/18 03:43:17;;;;;;;5.43;1.33;;;18.70;99.90;;;;;;5034490;28;20422;-82
2023/09/18 03:45:43;;;;;;;5.83;0.70;;;18.70;99.90;;;;;;5034567;28;20467;-82
2023/09/18 03:48:10;;;;;;;2.70;1.30;;;18.60;99.90;;;;;;5034606;28;20439;-82
2023/09/18 03:50:37;;;;;;;1.67;0.50;;;18.70;99.90;;;;;;5034583;28;20443;-82
2023/09/18 03:53:04;;;;;;;1.57;0.70;;;18.50;99.90;;;;;;5034349;28;20454;-82
2023/09/18 03:55:30;;;;;;;3.53;0.97;;;18.70;99.90;;;;;;5033890;28;20489;-82
2023/09/18 03:57:58;;;;;;;2.90;0.60;;;18.70;99.90;;;;;;5034457;28;20453;-82
2023/09/18 04:00:25;;;;;;;1.43;0.50;;;18.80;99.90;;;;;;5034385;28;20443;-82
2023/09/18 04:02:52;;;;;;;2.93;0.90;;;18.80;99.90;;;;;;5034316;28;20450;-83
2023/09/18 04:05:19;;;;;;;4.00;1.10;;;18.80;99.90;;;;;;5034177;28;20467;-82
2023/09/18 04:07:46;;;;;;;3.60;1.00;;;18.80;99.90;;;;;;5034003;28;20920;-83
2023/09/18 04:10:18;;;;;;;0.60;0.60;;;18.80;99.90;;;;;;5033920;28;20446;-82
2023/09/18 04:12:46;;;;;;;5.77;0.80;;;18.80;99.90;;;;;;5033899;28;20900;-82
2023/09/18 04:15:16;;;;;;;9.40;1.13;;;18.90;99.90;;;;;;5034039;28;20522;-82
2023/09/18 04:17:43;;;;;;;4.73;1.07;;;19.00;99.90;;;;;;5034109;28;20430;-82
2023/09/18 04:20:11;;;;;;;1.70;0.77;;;18.90;99.90;;;;;;5034031;28;20450;-82
2023/09/18 04:22:43;;;;;;;1.20;0.70;;;19.00;99.90;;;;;;5034008;28;20443;-82
2023/09/18 04:25:09;;;;;;;0.80;0.60;;;19.00;99.90;;;;;;5033700;28;20458;-82
2023/09/18 04:27:36;;;;;;;1.43;0.80;;;19.10;99.90;;;;;;5033495;28;20474;-82
2023/09/18 04:30:04;;;;;;;1.77;0.60;;;19.10;99.90;;;;;;5033845;28;20450;-82
2023/09/18 04:32:32;;;;;;;1.80;0.50;;;19.10;99.90;;;;;;5033519;28;20813;-82
2023/09/18 04:34:59;;;;;;;0.80;0.70;;;19.10;99.90;;;;;;5033717;28;20443;-82
2023/09/18 04:37:26;;;;;;;2.47;0.70;;;19.10;99.90;;;;;;5033345;28;21029;-82
2023/09/18 04:39:52;;;;;;;8.00;0.80;;;19.10;99.90;;;;;;5033685;28;20450;-82
2023/09/18 04:42:19;;;;;;;0.50;0.40;;;19.10;99.90;;;;;;5033345;28;20947;-82
2023/09/18 04:44:46;;;;;;;0.73;0.60;;;19.10;99.90;;;;;;5033328;28;20454;-82
2023/09/18 04:47:12;;;;;;;3.57;0.90;;;19.10;99.90;;;;;;5033803;28;20471;-82
2023/09/18 04:49:40;;;;;;;0.50;0.50;;;19.10;99.90;;;;;;5033804;28;20795;-82
2023/09/18 04:52:07;;;;;;;3.90;0.80;;;19.10;99.90;;;;;;5033201;28;20447;-82
2023/09/18 04:54:34;;;;;;;0.97;0.80;;;19.10;99.90;;;;;;5033465;28;20448;-82
2023/09/18 04:57:01;;;;;;;0.97;0.80;;;19.10;99.90;;;;;;5033284;28;20491;-82
2023/09/18 04:59:27;;;;;;;3.10;0.50;;;19.10;99.90;;;;;;5033417;28;20442;-82
2023/09/18 05:01:54;;;;;;;1.03;0.77;;;19.10;99.90;;;;;;5033356;28;20446;-82
2023/09/18 05:04:21;;;;;;;1.27;0.60;;;19.00;99.90;;;;;;5033014;28;20971;-82
2023/09/18 05:06:49;;;;;;;2.00;0.90;;;19.00;99.90;;;;;;5033023;28;20818;-82
2023/09/18 05:09:15;;;;;;;3.00;0.60;;;19.00;99.90;;;;;;5033196;28;20451;-82
2023/09/18 05:11:42;;;;;;;1.80;0.80;;;19.00;99.90;;;;;;5033257;28;20474;-82
2023/09/18 05:14:09;;;;;;;0.70;0.60;;;19.00;99.90;;;;;;5033210;28;20520;-82
2023/09/18 05:16:36;;;;;;;3.43;0.87;;;19.00;99.90;;;;;;5032867;28;20971;-82
2023/09/18 05:19:03;;;;;;;2.73;0.77;;;19.00;99.90;;;;;;5033151;28;20452;-81
2023/09/18 05:21:30;;;;;;;1.07;0.40;;;19.00;99.90;;;;;;5033573;28;20455;-81
2023/09/18 05:23:58;;;;;;;1.10;0.63;;;19.00;99.90;;;;;;5033125;28;20469;-81
2023/09/18 05:26:26;;;;;;;7.67;1.10;;;19.00;99.90;;;;;;5032556;28;20987;-81
2023/09/18 05:28:54;;;;;;;1.07;0.50;;;19.00;99.90;;;;;;5033051;28;20458;-81
2023/09/18 05:31:21;;;;;;;0.90;0.70;;;19.00;99.90;;;;;;5033049;28;20453;-81
2023/09/18 05:33:48;;;;;;;1.47;0.60;;;19.00;99.90;;;;;;5032754;28;20994;-81
2023/09/18 05:36:15;;;;;;;1.20;0.60;;;19.00;99.90;;;;;;5032899;28;20829;-81
2023/09/18 05:38:43;;;;;;;1.30;0.47;;;18.90;99.90;;;;;;5032758;28;20442;-81
2023/09/18 05:41:11;;;;;;;1.67;0.90;;;19.00;99.90;;;;;;5033073;28;20537;-81
2023/09/18 05:43:37;;;;;;;2.20;0.90;;;19.00;99.90;;;;;;5032957;28;20458;-81
2023/09/18 05:46:04;;;;;;;1.10;0.60;;;19.00;99.90;;;;;;5032790;28;20474;-81
2023/09/18 05:48:31;;;;;;;0.83;0.57;;;19.10;99.90;;;;;;5032560;28;21063;-81
2023/09/18 05:50:58;;;;;;;2.10;0.50;;;19.00;99.90;;;;;;5032883;28;20458;-81
2023/09/18 05:53:25;;;;;;;1.13;0.70;;;19.00;99.90;;;;;;5032819;28;20505;-81
2023/09/18 05:55:51;;;;;;;0.57;0.57;;;19.00;99.90;;;;;;5032644;28;20477;-81
2023/09/18 05:58:24;;;;;;;0.53;0.47;;;18.90;99.90;;;;;;5032813;28;20446;-81
2023/09/18 06:00:51;;;;;;;3.20;0.60;;;18.80;99.90;;;;;;5032889;28;20492;-81
2023/09/18 06:03:19;;;;;;;0.60;0.60;;;18.70;99.90;;;;;;5032422;28;20797;-82
2023/09/18 06:05:46;;;;;;;0.70;0.70;;;18.70;99.90;;;;;;5032571;28;20479;-82
2023/09/18 06:08:13;;;;;;;0.50;0.50;;;18.60;99.90;;;;;;5032800;28;20438;-82
2023/09/18 06:10:40;;;;;;;0.60;0.53;;;18.60;99.90;;;;;;5032752;28;20441;-81
2023/09/18 06:13:06;;;;;;;1.00;0.63;;;18.50;99.90;;;;;;5032736;28;20469;-82
2023/09/18 06:15:35;;;;;;;2.43;1.13;;;18.60;99.90;;;;;;5032333;28;20469;-82
2023/09/18 06:18:01;;;;;;;1.17;0.47;;;18.60;99.90;;;;;;5034935;28;20490;-81
2023/09/18 06:20:28;;;;;;;0.70;0.63;;;18.60;99.90;;;;;;5036196;28;20454;-82
2023/09/18 06:22:55;;;;;;;1.77;0.60;;;18.70;99.90;;;;;;5036002;28;20898;-81
2023/09/18 06:25:21;;;;;;;4.07;0.60;;;18.60;99.90;;;;;;5036146;28;20469;-82
2023/09/18 06:27:48;;;;;;;1.67;0.57;;;18.60;99.90;;;;;;5035741;28;20501;-83
2023/09/18 06:30:15;;;;;;;9.60;0.70;;;18.70;99.90;;;;;;5036132;28;20494;-82
2023/09/18 06:32:44;;;;;;;0.80;0.60;;;18.70;99.90;;;;;;5036327;28;20450;-83
2023/09/18 06:35:12;;;;;;;0.57;0.57;;;18.70;99.90;;;;;;5036238;28;20545;-83
2023/09/18 06:37:39;;;;;;;4.23;0.60;;;18.70;99.90;;;;;;5035574;28;20470;-83
2023/09/18 06:40:07;;;;;;;0.67;0.57;;;18.70;99.90;;;;;;5035891;28;20474;-82
2023/09/18 06:42:34;;;;;;;2.43;0.90;;;18.60;99.90;;;;;;5035603;28;20443;-82
2023/09/18 06:45:01;;;;;;;1.33;0.60;;;18.60;99.90;;;;;;5035420;28;20813;-82
2023/09/18 06:47:28;;;;;;;0.50;0.40;;;18.50;99.90;;;;;;5035792;28;20455;-83
2023/09/18 06:49:56;;;;;;;8.33;0.87;;;18.50;99.90;;;;;;5035392;28;20453;-83
2023/09/18 06:52:23;;;;;;;1.73;0.87;;;18.50;99.90;;;;;;5036016;28;20462;-83
2023/09/18 06:54:50;;;;;;;2.87;0.50;;;18.70;99.90;;;;;;5035536;28;20446;-83
2023/09/18 06:57:16;;;;;;;2.37;0.60;;;18.60;99.90;;;;;;5035200;28;20482;-82
2023/09/18 06:59:44;;;;;;;1.30;0.63;;;18.80;99.90;;;;;;5035478;28;20457;-82
2023/09/18 07:02:14;;;;;;;1.83;1.17;;;18.80;99.90;;;;;;5035394;28;20450;-83
2023/09/18 07:04:44;;;;;;;0.73;0.50;;;18.90;99.90;;;;;;5035250;28;20431;-83
2023/09/18 07:07:13;;;;;;;2.97;0.57;;;18.90;99.90;;;;;;5035404;28;20467;-83
2023/09/18 07:09:41;;;;;;;0.40;0.40;;;18.90;99.90;;;;;;5035050;28;20940;-83
2023/09/18 07:12:08;;;;;;;1.53;0.70;;;18.90;99.90;;;;;;5035286;28;20447;-83
2023/09/18 07:14:35;;;;;;;0.50;0.40;;;18.90;99.90;;;;;;5035229;28;20450;-83
2023/09/18 07:17:02;;;;;;;0.93;0.50;;;18.80;99.90;;;;;;5035193;28;20513;-83
2023/09/18 07:19:28;;;;;;;3.73;0.70;;;18.80;99.90;;;;;;5034942;28;20554;-83
2023/09/18 07:21:55;;;;;;;0.60;0.60;;;18.80;99.90;;;;;;5034893;28;20438;-83
2023/09/18 07:24:23;;;;;;;3.00;0.70;;;18.80;99.90;;;;;;5035105;28;20458;-82
2023/09/18 07:26:50;;;;;;;1.80;0.67;;;18.80;99.90;;;;;;5034656;28;20485;-83
2023/09/18 07:29:17;;;;;;;0.60;0.60;;;18.90;99.90;;;;;;5033658;28;20443;-83
2023/09/18 07:31:45;;;;;;;1.37;0.40;;;18.90;99.90;;;;;;5035015;28;20481;-83
2023/09/18 07:34:12;;;;;;;3.63;0.47;;;19.00;99.90;;;;;;5034679;28;20457;-83
2023/09/18 07:36:38;;;;;;;0.50;0.50;;;18.90;99.90;;;;;;5034758;28;20490;-83
2023/09/18 07:39:05;;;;;;;1.37;0.53;;;18.90;99.90;;;;;;5034782;28;20447;-83
2023/09/18 07:41:33;;;;;;;2.90;0.60;;;18.80;99.90;;;;;;5034757;28;20451;-83
2023/09/18 07:44:00;;;;;;;0.80;0.50;;;18.80;99.90;;;;;;5034731;28;20454;-83
2023/09/18 07:46:27;;;;;;;0.50;0.43;;;18.80;99.90;;;;;;5034593;28;20473;-82
2023/09/18 07:48:54;;;;;;;2.00;0.50;;;18.70;99.90;;;;;;5034388;28;20450;-82
2023/09/18 07:51:20;;;;;;;0.60;0.40;;;18.70;99.90;;;;;;5034288;28;20825;-82
2023/09/18 07:53:48;;;;;;;1.57;0.70;;;18.70;99.90;;;;;;5034276;28;20441;-82
2023/09/18 07:56:14;;;;;;;2.87;0.60;;;18.80;99.90;;;;;;5034356;28;20850;-82
2023/09/18 07:58:42;;;;;;;1.37;0.50;;;18.80;99.90;;;;;;5034403;28;20486;-82
2023/09/18 08:01:10;;;;;;;0.60;0.60;;;18.80;99.90;;;;;;5034412;28;20501;-82
2023/09/18 08:03:37;;;;;;;0.40;0.40;;;18.80;99.90;;;;;;5034338;28;20457;-83
2023/09/18 08:06:05;;;;;;;0.60;0.47;;;18.90;99.90;;;;;;5034014;28;20462;-82
2023/09/18 08:08:33;;;;;;;0.43;0.43;;;18.90;99.90;;;;;;5034333;28;20795;-82
2023/09/18 08:11:01;;;;;;;1.93;0.50;;;18.90;99.90;;;;;;5034331;28;20446;-81
2023/09/18 08:13:29;;;;;;;0.60;0.60;;;18.90;99.90;;;;;;5034221;28;20872;-82
2023/09/18 08:15:57;;;;;;;0.50;0.40;;;19.00;99.90;;;;;;5034048;28;20532;-81
2023/09/18 08:18:26;;;;;;;0.40;0.40;;;19.00;99.90;;;;;;5033688;28;20474;-82
2023/09/18 08:20:53;;;;;;;0.63;0.50;;;19.10;99.90;;;;;;5033742;28;21013;-82
2023/09/18 08:23:20;;;;;;;2.50;0.50;;;19.10;99.90;;;;;;5033981;28;20446;-83
2023/09/18 08:25:47;;;;;;;0.63;0.40;;;19.10;99.90;;;;;;5033631;28;20486;-82
2023/09/18 08:28:15;;;;;;;1.90;0.40;;;19.00;99.90;;;;;;5033694;28;20439;-82
2023/09/18 08:30:44;;;;;;;0.40;0.30;;;18.90;99.90;;;;;;5033839;28;20451;-82
2023/09/18 08:33:12;;;;;;;1.23;0.30;;;18.80;99.90;;;;;;5033852;28;20457;-83
2023/09/18 08:35:39;;;;;;;0.80;0.40;;;18.70;99.90;;;;;;5033593;28;20469;-83
2023/09/18 08:38:06;;;;;;;1.77;0.40;;;18.50;99.90;;;;;;5033679;28;20514;-84
2023/09/18 08:40:34;;;;;;;0.60;0.37;;;18.30;99.90;;;;;;5033238;28;20452;-84
2023/09/18 08:43:03;;;;;;;0.60;0.40;;;18.10;99.90;;;;;;5033701;28;20443;-84
2023/09/18 08:45:35;;;;;;;0.50;0.50;;;18.00;99.90;;;;;;5033593;28;20490;-85
2023/09/18 08:48:03;;;;;;;0.97;0.50;;;17.90;99.90;;;;;;5033751;28;20426;-86
2023/09/18 08:50:31;;;;;;;0.60;0.50;;;17.90;99.90;;;;;;5033664;28;20459;-86
2023/09/18 08:52:59;;;;;;;0.67;0.40;;;17.80;99.90;;;;;;5033854;28;20446;-85
2023/09/18 08:55:26;;;;;;;5.00;0.40;;;17.60;99.90;;;;;;5033219;28;20834;-84
2023/09/18 08:57:54;;;;;;;0.40;0.33;;;17.50;99.90;;;;;;5033513;28;20479;-87
2023/09/18 09:00:21;;;;;;;0.67;0.50;;;17.40;99.90;;;;;;5033583;28;20453;-86
2023/09/18 09:02:51;;;;;;;0.50;0.50;;;17.30;99.90;;;;;;5033230;28;21003;-84
2023/09/18 09:05:18;;;;;;;0.50;0.40;;;17.20;99.90;;;;;;5033476;28;20471;-86
2023/09/18 09:07:47;;;;;;;0.50;0.40;;;17.10;99.90;;;;;;5033252;28;20462;-86
2023/09/18 09:10:14;;;;;;;0.73;0.40;;;17.10;99.90;;;;;;5033176;28;21006;-85
2023/09/18 09:12:54;;;;;;;2.30;0.50;;;17.10;99.90;;;;;;5033379;28;20853;-85
2023/09/18 09:15:22;;;;;;;0.90;0.50;;;17.00;99.90;;;;;;5033326;28;20473;-86
2023/09/18 09:17:50;;;;;;;1.10;0.47;;;17.10;99.90;;;;;;5033108;28;20837;-85
2023/09/18 09:20:18;;;;;;;0.50;0.40;;;17.20;99.90;;;;;;5033241;28;20807;-85
2023/09/18 09:22:46;;;;;;;1.53;0.70;;;17.30;99.90;;;;;;5032910;28;20496;-85
2023/09/18 09:25:25;;;;;;;1.73;0.40;;;17.30;99.90;;;;;;5033229;28;20469;-85
2023/09/18 09:27:53;;;;;;;0.60;0.57;;;17.30;99.90;;;;;;4993521;28;20950;-85
2023/09/18 09:30:21;;;;;;;1.17;0.50;;;17.30;99.90;;;;;;4993836;28;20484;-85
2023/09/18 09:32:49;;;;;;;2.20;0.50;;;17.70;99.90;;;;;;4994040;28;20926;-86
2023/09/18 09:35:21;;;;;;;0.80;0.40;;;17.50;99.90;;;;;;4993448;28;20468;-85
2023/09/18 09:37:51;;;;;;;1.07;0.57;;;17.50;99.90;;;;;;4993950;28;20472;-85
2023/09/18 09:40:20;;;;;;;1.47;0.80;;;17.50;99.90;;;;;;4993522;28;20981;-86
2023/09/18 09:42:47;;;;;;;2.10;0.70;;;17.40;99.90;;;;;;4993867;28;20436;-86
2023/09/18 09:45:16;;;;;;;0.90;0.60;;;17.40;99.90;;;;;;4993729;28;20467;-86
2023/09/18 09:47:43;;;;;;;0.60;0.60;;;17.40;99.90;;;;;;4993743;28;20441;-86
2023/09/18 09:50:13;;;;;;;0.67;0.53;;;17.30;99.90;;;;;;4993757;28;20448;-85
2023/09/18 09:52:44;;;;;;;0.50;0.40;;;17.30;99.90;;;;;;4995651;28;20445;-86
2023/09/18 09:55:24;;;;;;;0.40;0.37;;;17.40;99.90;;;;;;4997266;28;21059;-86
2023/09/18 09:57:53;;;;;;;0.63;0.50;;;17.40;99.90;;;;;;4997262;28;20988;-86
2023/09/18 10:00:26;;;;;;;0.70;0.60;;;17.50;99.90;;;;;;4997274;28;20436;-85
2023/09/18 10:02:58;;;;;;;0.50;0.30;;;17.50;99.90;;;;;;4998050;28;20499;-86
2023/09/18 10:05:28;;;;;;;0.60;0.50;;;17.50;99.90;;;;;;4997433;28;20469;-85
2023/09/18 10:07:59;;;;;;;0.50;0.50;;;17.50;99.90;;;;;;4997516;28;20479;-84
2023/09/18 10:10:32;;;;;;;1.13;0.80;;;17.50;99.90;;;;;;4997077;28;20914;-82
2023/09/18 10:13:01;;;;;;;0.40;0.40;;;17.50;99.90;;;;;;4997384;28;20487;-85
2023/09/18 10:15:30;;;;;;;0.37;0.33;;;17.40;99.90;;;;;;4997387;28;20461;-85
2023/09/18 10:18:00;;;;;;;0.70;0.50;;;17.40;99.90;;;;;;4997347;28;20503;-85
2023/09/18 10:20:29;;;;;;;1.33;0.80;;;17.30;99.90;;;;;;4996827;28;20945;-85
2023/09/18 10:23:01;;;;;;;3.33;0.47;;;17.40;99.90;;;;;;4997103;28;20458;-85
2023/09/18 10:25:31;;;;;;;0.80;0.53;;;17.40;99.90;;;;;;4997356;28;20559;-86
2023/09/18 10:28:01;;;;;;;1.03;0.50;;;17.40;99.90;;;;;;5036694;28;20470;-86
2023/09/18 10:30:30;;;;;;;1.70;0.60;;;17.40;99.90;;;;;;5036319;28;20429;-86
2023/09/18 10:32:59;;;;;;;4.30;0.70;;;17.40;99.90;;;;;;5036307;28;20434;-84
2023/09/18 10:35:26;;;;;;;0.50;0.40;;;17.40;99.90;;;;;;5036856;28;20478;-86
2023/09/18 10:37:55;;;;;;;1.93;0.57;;;17.40;99.90;;;;;;5036485;28;20486;-86
2023/09/18 10:40:23;;;;;;;5.87;0.50;;;17.40;99.90;;;;;;5036470;28;20932;-86
2023/09/18 10:42:52;;;;;;;1.00;0.50;;;17.40;99.90;;;;;;5035905;28;21038;-86
2023/09/18 10:45:20;;;;;;;0.50;0.40;;;17.50;99.90;;;;;;5035652;28;21006;-85
2023/09/18 10:47:48;;;;;;;0.70;0.60;;;17.50;99.90;;;;;;5035816;28;20450;-86
2023/09/18 10:50:24;;;;;;;0.43;0.43;;;17.50;99.90;;;;;;5035906;28;20446;-84
2023/09/18 10:52:51;;;;;;;2.73;0.80;;;17.50;99.90;;;;;;5035993;28;20435;-85
2023/09/18 10:55:18;;;;;;;1.13;0.50;;;17.50;99.90;;;;;;5035595;28;20990;-85
2023/09/18 10:57:53;;;;;;;0.70;0.50;;;17.60;99.90;;;;;;5035722;28;20482;-84
2023/09/18 11:00:22;;;;;;;4.23;0.50;;;17.60;99.90;;;;;;5035821;28;20442;-86
2023/09/18 11:02:51;;;;;;;0.60;0.40;;;17.50;99.90;;;;;;5035566;28;20443;-86
2023/09/18 11:05:30;;;;;;;0.40;0.40;;;17.40;99.90;;;;;;5035381;28;20987;-86
2023/09/18 11:08:27;;;;;;;0.40;0.40;;;17.40;99.90;;;;;;5036321;28;20994;-87
2023/09/18 11:11:04;;;;;;;1.37;0.50;;;17.40;99.90;;;;;;5035740;28;20449;-86
2023/09/18 11:13:35;;;;;;;1.37;0.40;;;17.50;99.90;;;;;;5035567;28;20438;-86
2023/09/18 11:16:03;;;;;;;0.40;0.40;;;17.50;99.90;;;;;;5035394;28;20447;-83
2023/09/18 11:18:33;;;;;;;0.50;0.50;;;17.40;99.90;;;;;;5035564;28;20541;-86
2023/09/18 11:21:10;;;;;;;0.30;0.30;;;17.40;99.90;;;;;;5035170;28;20431;-84
2023/09/18 11:23:40;;;;;;;0.67;0.67;;;17.40;99.90;;;;;;5034790;28;20457;-86
2023/09/18 11:26:09;;;;;;;0.60;0.40;;;17.40;99.90;;;;;;5034762;28;20567;-85
2023/09/18 11:28:38;;;;;;;0.83;0.57;;;17.40;99.90;;;;;;5035214;28;20447;-85
2023/09/18 11:31:05;;;;;;;1.17;0.43;;;17.40;99.90;;;;;;5034672;28;20446;-86
2023/09/18 11:33:34;;;;;;;0.40;0.40;;;17.40;99.90;;;;;;5035097;28;20833;-85
2023/09/18 11:36:08;;;;;;;2.30;0.50;;;17.40;99.90;;;;;;5034684;28;20546;-84
2023/09/18 11:38:36;;;;;;;0.30;0.30;;;17.50;99.90;;;;;;5034966;28;20474;-84
2023/09/18 11:41:21;;;;;;;0.90;0.50;;;17.50;99.90;;;;;;5034688;28;20878;-84
2023/09/18 11:43:49;;;;;;;0.53;0.53;;;17.50;99.90;;;;;;5034870;28;20431;-85
2023/09/18 11:46:20;;;;;;;0.30;0.30;;;17.50;99.90;;;;;;5034728;28;20469;-84
2023/09/18 11:48:49;;;;;;;0.70;0.50;;;17.50;99.90;;;;;;5034651;28;20440;-84
2023/09/18 11:51:22;;;;;;;1.43;0.33;;;17.60;99.90;;;;;;5034376;28;20446;-84
2023/09/18 11:53:54;;;;;;;0.50;0.30;;;17.70;99.90;;;;;;5034685;28;20426;-83
2023/09/18 11:56:21;;;;;;;0.70;0.60;;;17.70;99.90;;;;;;5034549;28;20524;-83
2023/09/18 11:58:50;;;;;;;0.67;0.43;;;17.80;99.90;;;;;;5034459;28;20490;-83
2023/09/18 12:01:19;;;;;;;0.30;0.30;;;17.90;99.90;;;;;;5034244;28;20968;-82
2023/09/18 12:03:47;;;;;;;0.73;0.40;;;17.80;99.90;;;;;;5034172;28;20446;-83
2023/09/18 12:06:14;;;;;;;0.60;0.50;;;17.80;99.90;;;;;;5034574;28;20455;-82
2023/09/18 12:08:41;;;;;;;0.50;0.50;;;18.00;99.90;;;;;;5035194;28;20419;-82
2023/09/18 12:11:08;;;;;;;0.50;0.50;;;18.00;99.90;;;;;;5034290;28;20473;-83
2023/09/18 12:13:35;;;;;;;0.50;0.50;;;18.00;99.90;;;;;;5033911;28;20447;-83
2023/09/18 12:16:05;;;;;;;0.73;0.40;;;18.10;99.90;;;;;;5033290;28;20474;-82
2023/09/18 12:18:34;;;;;;;0.30;0.30;;;18.20;99.90;;;;;;5034138;28;20471;-82
2023/09/18 12:21:04;;;;;;;0.60;0.50;;;18.20;99.90;;;;;;5033797;28;20457;-82
2023/09/18 12:23:39;;;;;;;1.27;0.83;;;18.20;99.90;;;;;;5033797;28;20427;-82
2023/09/18 12:26:07;;;;;;;0.40;0.40;;;18.10;99.90;;;;;;5033737;28;20481;-82
2023/09/18 12:28:35;;;;;;;0.67;0.67;;;18.20;99.90;;;;;;5033915;28;20467;-81
2023/09/18 12:31:06;;;;;;;0.43;0.40;;;18.20;99.90;;;;;;5033868;28;20453;-80
2023/09/18 12:33:36;;;;;;;1.70;0.50;;;18.40;99.90;;;;;;5033967;28;20475;-80
2023/09/18 12:36:04;;;;;;;0.40;0.40;;;18.40;99.90;;;;;;5033498;28;20461;-81
2023/09/18 12:38:32;;;;;;;2.40;0.50;;;18.40;99.90;;;;;;5033720;28;20568;-81
2023/09/18 12:41:05;;;;;;;1.43;0.40;;;18.50;99.90;;;;;;5033757;28;20426;-80
2023/09/18 12:43:34;;;;;;;0.50;0.40;;;18.70;99.90;;;;;;5034596;28;20793;-80
2023/09/18 12:46:05;;;;;;;0.60;0.30;;;18.90;99.90;;;;;;5033331;28;20450;-80
2023/09/18 12:48:32;;;;;;;0.50;0.40;;;19.00;99.90;;;;;;5033329;28;20892;-80
2023/09/18 12:51:04;;;;;;;1.00;0.50;;;19.10;99.90;;;;;;5033570;28;20454;-80
2023/09/18 12:53:31;;;;;;;0.60;0.30;;;19.20;99.90;;;;;;5033297;28;20841;-81